Other Surface Observations
Issued by NWS Great Falls, MT

Home | Current Version | Previous Version | Text Only | Print | Product List | Glossary On
Versions: 1 2 3 4 5 6 7 8 9 10 11 12 13 14 15 16 17 18 19 20 21 22 23 24 25 26 27 28 29 30 31 32 33 34 35 36 37 38 39 40 41 42 43 44 45 46 47 48 49 50
004
SXUS55 KTFX 141914
OSOTFX
AREA AWOS OBSERVATIONS
NATIONAL WEATHER SERVICE GREAT FALLS MT
1214 PM MST SUN FEB 14 2016

METAR KPWD 141915Z AUTO 20003KT 9SM 02/M03 A2969 RMK PLENTYWOOD
METAR KPO1 141915Z AUTO 20003KT 10SM 04/M01 A2972 RMK POPLAR
METAR K1S3 141915Z AUTO 27014G23KT 10SM 08/M01 A2978 RMK FORSYTH
METAR KS71 141915Z AUTO 28017G26KT 10SM 10/M05 A2976 RMK CHINOOK
METAR K38S 141915Z AUTO 30014G20KT 10SM 06/M03 A3000 RMK DEER LODGE
METAR K3U3 141915Z AUTO 25019G25KT 10SM 07/M04 A2999 RMK ANACONDA
METAR K6S5 141915Z AUTO 17008G15KT 10SM 08/M01 A3007 RMK HAMILTON



USA.gov is the U.S. government's official web portal to all federal, state and local government web resources and services.